sensor_id;sensor_type;location;lat;lon;timestamp;pressure;altitude;pressure_sealevel;temperature;humidity
64862;BME280;62652;42.274;-71.436;2024-02-04T00:00:00;100930.0;;;0.4999999999999992;54.3
64862;BME280;62652;42.274;-71.436;2024-02-04T00:01:01;100930.0;;;0.38888888888889045;54.0
64862;BME280;62652;42.274;-71.436;2024-02-04T00:02:01;100930.0;;;0.2777777777777778;54.8
64862;BME280;62652;42.274;-71.436;2024-02-04T00:03:00;100930.0;;;0.2777777777777778;55.5
64862;BME280;62652;42.274;-71.436;2024-02-04T00:04:02;100930.0;;;0.22222222222222143;55.3
64862;BME280;62652;42.274;-71.436;2024-02-04T00:05:00;100940.0;;;0.22222222222222143;55.6
64862;BME280;62652;42.274;-71.436;2024-02-04T00:06:01;100940.0;;;0.22222222222222143;56.1
64862;BME280;62652;42.274;-71.436;2024-02-04T00:07:00;100930.0;;;0.2777777777777778;56.1
64862;BME280;62652;42.274;-71.436;2024-02-04T00:08:00;100930.0;;;0.2777777777777778;55.0
64862;BME280;62652;42.274;-71.436;2024-02-04T00:09:00;100930.0;;;0.22222222222222143;55.8
64862;BME280;62652;42.274;-71.436;2024-02-04T00:10:01;100930.0;;;0.2777777777777778;55.9
64862;BME280;62652;42.274;-71.436;2024-02-04T00:11:00;100930.0;;;0.38888888888889045;55.3
64862;BME280;62652;42.274;-71.436;2024-02-04T00:12:01;100920.0;;;0.22222222222222143;55.8
64862;BME280;62652;42.274;-71.436;2024-02-04T00:13:00;100920.0;;;0.22222222222222143;55.2
64862;BME280;62652;42.274;-71.436;2024-02-04T00:14:00;100920.0;;;0.2777777777777778;55.0
64862;BME280;62652;42.274;-71.436;2024-02-04T00:15:00;100920.0;;;0.22222222222222143;56.0
64862;BME280;62652;42.274;-71.436;2024-02-04T00:16:00;100920.0;;;0.22222222222222143;55.2
64862;BME280;62652;42.274;-71.436;2024-02-04T00:17:00;100920.0;;;0.22222222222222143;55.1
64862;BME280;62652;42.274;-71.436;2024-02-04T00:18:00;100920.0;;;0.11111111111111269;55.4
64862;BME280;62652;42.274;-71.436;2024-02-04T00:19:01;100920.0;;;0.11111111111111269;55.6
64862;BME280;62652;42.274;-71.436;2024-02-04T00:20:01;100920.0;;;0.11111111111111269;56.3
64862;BME280;62652;42.274;-71.436;2024-02-04T00:21:00;100920.0;;;0.0;55.9
64862;BME280;62652;42.274;-71.436;2024-02-04T00:22:00;100930.0;;;0.0;56.0
64862;BME280;62652;42.274;-71.436;2024-02-04T00:23:01;100930.0;;;0.11111111111111269;56.0
64862;BME280;62652;42.274;-71.436;2024-02-04T00:24:01;100920.0;;;0.0;56.0
64862;BME280;62652;42.274;-71.436;2024-02-04T00:25:00;100930.0;;;0.0;56.0
64862;BME280;62652;42.274;-71.436;2024-02-04T00:26:01;100920.0;;;-0.11111111111111072;56.1
64862;BME280;62652;42.274;-71.436;2024-02-04T00:27:00;100930.0;;;0.0;55.8
64862;BME280;62652;42.274;-71.436;2024-02-04T00:28:01;100930.0;;;0.0;55.6
64862;BME280;62652;42.274;-71.436;2024-02-04T00:29:01;100920.0;;;-0.11111111111111072;55.2
64862;BME280;62652;42.274;-71.436;2024-02-04T00:30:00;100930.0;;;0.0;56.1
64862;BME280;62652;42.274;-71.436;2024-02-04T00:31:01;100930.0;;;-0.11111111111111072;56.2
64862;BME280;62652;42.274;-71.436;2024-02-04T00:32:01;100930.0;;;-0.11111111111111072;55.9
64862;BME280;62652;42.274;-71.436;2024-02-04T00:33:00;100930.0;;;-0.11111111111111072;55.8
64862;BME280;62652;42.274;-71.436;2024-02-04T00:34:01;100930.0;;;-0.11111111111111072;56.0
64862;BME280;62652;42.274;-71.436;2024-02-04T00:35:01;100930.0;;;0.0;56.1
64862;BME280;62652;42.274;-71.436;2024-02-04T00:36:01;100930.0;;;-0.11111111111111072;55.5
64862;BME280;62652;42.274;-71.436;2024-02-04T00:37:01;100930.0;;;-0.22222222222222143;55.3
64862;BME280;62652;42.274;-71.436;2024-02-04T00:38:00;100930.0;;;-0.22222222222222143;56.1
64862;BME280;62652;42.274;-71.436;2024-02-04T00:39:00;100930.0;;;-0.11111111111111072;55.9
64862;BME280;62652;42.274;-71.436;2024-02-04T00:40:00;100940.0;;;-0.22222222222222143;55.8
64862;BME280;62652;42.274;-71.436;2024-02-04T00:41:01;100930.0;;;-0.22222222222222143;56.7
64862;BME280;62652;42.274;-71.436;2024-02-04T00:42:00;100940.0;;;-0.2777777777777778;56.8
64862;BME280;62652;42.274;-71.436;2024-02-04T00:43:01;100930.0;;;-0.2777777777777778;57.0
64862;BME280;62652;42.274;-71.436;2024-02-04T00:44:01;100940.0;;;-0.2777777777777778;56.8
64862;BME280;62652;42.274;-71.436;2024-02-04T00:45:01;100940.0;;;-0.2777777777777778;56.3
64862;BME280;62652;42.274;-71.436;2024-02-04T00:46:00;100940.0;;;-0.2777777777777778;56.2
64862;BME280;62652;42.274;-71.436;2024-02-04T00:47:00;100940.0;;;-0.22222222222222143;56.2
64862;BME280;62652;42.274;-71.436;2024-02-04T00:48:01;100940.0;;;-0.22222222222222143;56.4
64862;BME280;62652;42.274;-71.436;2024-02-04T00:49:00;100940.0;;;-0.2777777777777778;56.4
64862;BME280;62652;42.274;-71.436;2024-02-04T00:50:00;100940.0;;;-0.22222222222222143;56.8
64862;BME280;62652;42.274;-71.436;2024-02-04T00:51:00;100940.0;;;-0.22222222222222143;56.7
64862;BME280;62652;42.274;-71.436;2024-02-04T00:52:00;100940.0;;;-0.2777777777777778;56.0
64862;BME280;62652;42.274;-71.436;2024-02-04T00:53:00;100940.0;;;-0.2777777777777778;56.8
64862;BME280;62652;42.274;-71.436;2024-02-04T00:54:01;100940.0;;;-0.22222222222222143;56.7
64862;BME280;62652;42.274;-71.436;2024-02-04T00:55:00;100950.0;;;-0.3888888888888885;56.2
64862;BME280;62652;42.274;-71.436;2024-02-04T00:56:00;100950.0;;;-0.2777777777777778;57.4
64862;BME280;62652;42.274;-71.436;2024-02-04T00:57:00;100950.0;;;-0.3888888888888885;57.3
64862;BME280;62652;42.274;-71.436;2024-02-04T00:58:00;100950.0;;;-0.3888888888888885;57.4
64862;BME280;62652;42.274;-71.436;2024-02-04T00:59:01;100950.0;;;-0.4999999999999992;57.5
64862;BME280;62652;42.274;-71.436;2024-02-04T01:00:01;100950.0;;;-0.3888888888888885;57.7
64862;BME280;62652;42.274;-71.436;2024-02-04T01:01:00;100960.0;;;-0.3888888888888885;57.5
64862;BME280;62652;42.274;-71.436;2024-02-04T01:02:01;100950.0;;;-0.3888888888888885;56.9
64862;BME280;62652;42.274;-71.436;2024-02-04T01:03:00;100950.0;;;-0.2777777777777778;57.1
64862;BME280;62652;42.274;-71.436;2024-02-04T01:04:00;100950.0;;;-0.2777777777777778;57.2
64862;BME280;62652;42.274;-71.436;2024-02-04T01:05:00;100960.0;;;-0.2777777777777778;56.9
64862;BME280;62652;42.274;-71.436;2024-02-04T01:06:00;100960.0;;;-0.3888888888888885;57.2
64862;BME280;62652;42.274;-71.436;2024-02-04T01:07:00;100950.0;;;-0.2777777777777778;57.2
64862;BME280;62652;42.274;-71.436;2024-02-04T01:08:00;100960.0;;;-0.3888888888888885;57.6
64862;BME280;62652;42.274;-71.436;2024-02-04T01:09:00;100960.0;;;-0.4999999999999992;57.5
64862;BME280;62652;42.274;-71.436;2024-02-04T01:10:01;100960.0;;;-0.3888888888888885;58.0
64862;BME280;62652;42.274;-71.436;2024-02-04T01:11:00;100950.0;;;-0.3888888888888885;57.4
64862;BME280;62652;42.274;-71.436;2024-02-04T01:12:00;100950.0;;;-0.3888888888888885;57.4
64862;BME280;62652;42.274;-71.436;2024-02-04T01:13:01;100960.0;;;-0.3888888888888885;58.8
64862;BME280;62652;42.274;-71.436;2024-02-04T01:14:00;100960.0;;;-0.4999999999999992;57.9
64862;BME280;62652;42.274;-71.436;2024-02-04T01:15:01;100950.0;;;-0.6111111111111119;59.1
64862;BME280;62652;42.274;-71.436;2024-02-04T01:16:00;100950.0;;;-0.6111111111111119;58.7
64862;BME280;62652;42.274;-71.436;2024-02-04T01:17:01;100960.0;;;-0.7222222222222227;58.2
64862;BME280;62652;42.274;-71.436;2024-02-04T01:18:01;100960.0;;;-0.6111111111111119;58.4
64862;BME280;62652;42.274;-71.436;2024-02-04T01:19:00;100960.0;;;-0.7222222222222227;58.4
64862;BME280;62652;42.274;-71.436;2024-02-04T01:20:01;100960.0;;;-0.6111111111111119;58.3
64862;BME280;62652;42.274;-71.436;2024-02-04T01:21:00;100960.0;;;-0.6111111111111119;58.9
64862;BME280;62652;42.274;-71.436;2024-02-04T01:22:00;100960.0;;;-0.6111111111111119;58.7
64862;BME280;62652;42.274;-71.436;2024-02-04T01:23:00;100960.0;;;-0.7222222222222227;59.9
64862;BME280;62652;42.274;-71.436;2024-02-04T01:24:01;100960.0;;;-0.6111111111111119;60.1
64862;BME280;62652;42.274;-71.436;2024-02-04T01:25:00;100960.0;;;-0.4999999999999992;58.5
64862;BME280;62652;42.274;-71.436;2024-02-04T01:26:01;100960.0;;;-0.4999999999999992;58.6
64862;BME280;62652;42.274;-71.436;2024-02-04T01:27:01;100960.0;;;-0.6111111111111119;58.8
64862;BME280;62652;42.274;-71.436;2024-02-04T01:28:01;100960.0;;;-0.4999999999999992;58.5
64862;BME280;62652;42.274;-71.436;2024-02-04T01:29:00;100960.0;;;-0.4999999999999992;58.3
64862;BME280;62652;42.274;-71.436;2024-02-04T01:30:01;100960.0;;;-0.6111111111111119;59.0
64862;BME280;62652;42.274;-71.436;2024-02-04T01:31:00;100960.0;;;-0.3888888888888885;58.5
64862;BME280;62652;42.274;-71.436;2024-02-04T01:32:00;100960.0;;;-0.4999999999999992;58.5
64862;BME280;62652;42.274;-71.436;2024-02-04T01:33:01;100960.0;;;-0.6111111111111119;59.4
64862;BME280;62652;42.274;-71.436;2024-02-04T01:34:01;100960.0;;;-0.6111111111111119;58.7
64862;BME280;62652;42.274;-71.436;2024-02-04T01:35:01;100960.0;;;-0.6111111111111119;58.4
64862;BME280;62652;42.274;-71.436;2024-02-04T01:36:00;100950.0;;;-0.6111111111111119;58.9
64862;BME280;62652;42.274;-71.436;2024-02-04T01:37:01;100960.0;;;-0.4999999999999992;58.2
64862;BME280;62652;42.274;-71.436;2024-02-04T01:38:01;100950.0;;;-0.4999999999999992;58.4
64862;BME280;62652;42.274;-71.436;2024-02-04T01:39:01;100950.0;;;-0.6111111111111119;59.1
64862;BME280;62652;42.274;-71.436;2024-02-04T01:40:01;100960.0;;;-0.6111111111111119;58.6
64862;BME280;62652;42.274;-71.436;2024-02-04T01:41:01;100960.0;;;-0.7222222222222227;59.2
64862;BME280;62652;42.274;-71.436;2024-02-04T01:42:01;100960.0;;;-0.7222222222222227;59.7
64862;BME280;62652;42.274;-71.436;2024-02-04T01:43:00;100960.0;;;-0.6111111111111119;59.1
64862;BME280;62652;42.274;-71.436;2024-02-04T01:44:00;100960.0;;;-0.7222222222222227;59.7
64862;BME280;62652;42.274;-71.436;2024-02-04T01:45:01;100950.0;;;-0.6111111111111119;60.0
64862;BME280;62652;42.274;-71.436;2024-02-04T01:46:01;100960.0;;;-0.6111111111111119;60.0
64862;BME280;62652;42.274;-71.436;2024-02-04T01:47:00;100960.0;;;-0.6111111111111119;60.1
64862;BME280;62652;42.274;-71.436;2024-02-04T01:48:01;100960.0;;;-0.7222222222222227;59.5
64862;BME280;62652;42.274;-71.436;2024-02-04T01:49:00;100960.0;;;-0.6111111111111119;59.8
64862;BME280;62652;42.274;-71.436;2024-02-04T01:50:01;100960.0;;;-0.777777777777777;60.0
64862;BME280;62652;42.274;-71.436;2024-02-04T01:51:00;100970.0;;;-0.7222222222222227;60.4
64862;BME280;62652;42.274;-71.436;2024-02-04T01:52:01;100970.0;;;-0.7222222222222227;60.6
64862;BME280;62652;42.274;-71.436;2024-02-04T01:53:00;100970.0;;;-0.6111111111111119;60.0
64862;BME280;62652;42.274;-71.436;2024-02-04T01:54:00;100970.0;;;-0.777777777777777;60.7
64862;BME280;62652;42.274;-71.436;2024-02-04T01:55:02;100970.0;;;-0.7222222222222227;60.6
64862;BME280;62652;42.274;-71.436;2024-02-04T01:56:00;100970.0;;;-0.777777777777777;60.8
64862;BME280;62652;42.274;-71.436;2024-02-04T01:57:01;100960.0;;;-0.777777777777777;61.1
64862;BME280;62652;42.274;-71.436;2024-02-04T01:58:01;100970.0;;;-0.777777777777777;60.7
64862;BME280;62652;42.274;-71.436;2024-02-04T01:59:01;100970.0;;;-0.777777777777777;61.3
64862;BME280;62652;42.274;-71.436;2024-02-04T02:00:01;100970.0;;;-0.8888888888888897;61.2
64862;BME280;62652;42.274;-71.436;2024-02-04T02:01:01;100970.0;;;-0.8888888888888897;61.5
64862;BME280;62652;42.274;-71.436;2024-02-04T02:02:00;100970.0;;;-0.8888888888888897;61.8
64862;BME280;62652;42.274;-71.436;2024-02-04T02:03:01;100970.0;;;-0.777777777777777;61.8
64862;BME280;62652;42.274;-71.436;2024-02-04T02:04:01;100970.0;;;-0.8888888888888897;61.7
64862;BME280;62652;42.274;-71.436;2024-02-04T02:05:01;100970.0;;;-0.777777777777777;61.4
64862;BME280;62652;42.274;-71.436;2024-02-04T02:06:01;100970.0;;;-0.777777777777777;61.5
64862;BME280;62652;42.274;-71.436;2024-02-04T02:07:01;100970.0;;;-0.8888888888888897;61.4
64862;BME280;62652;42.274;-71.436;2024-02-04T02:08:01;100970.0;;;-0.8888888888888897;62.2
64862;BME280;62652;42.274;-71.436;2024-02-04T02:09:02;100970.0;;;-0.8888888888888897;62.1
64862;BME280;62652;42.274;-71.436;2024-02-04T02:10:01;100970.0;;;-0.8888888888888897;62.5
64862;BME280;62652;42.274;-71.436;2024-02-04T02:11:07;100970.0;;;-0.8888888888888897;62.5
64862;BME280;62652;42.274;-71.436;2024-02-04T02:12:05;100970.0;;;-0.777777777777777;62.1
64862;BME280;62652;42.274;-71.436;2024-02-04T02:13:06;100980.0;;;-0.7222222222222227;61.2
64862;BME280;62652;42.274;-71.436;2024-02-04T02:14:03;100970.0;;;-0.777777777777777;61.4
64862;BME280;62652;42.274;-71.436;2024-02-04T02:15:05;100970.0;;;-0.777777777777777;61.2
64862;BME280;62652;42.274;-71.436;2024-02-04T02:16:05;100970.0;;;-0.8888888888888897;61.3
64862;BME280;62652;42.274;-71.436;2024-02-04T02:17:04;100970.0;;;-1.0000000000000004;62.4
64862;BME280;62652;42.274;-71.436;2024-02-04T02:18:04;100970.0;;;-1.0000000000000004;63.0
64862;BME280;62652;42.274;-71.436;2024-02-04T02:19:12;100970.0;;;-1.0000000000000004;62.7
64862;BME280;62652;42.274;-71.436;2024-02-04T02:20:04;100970.0;;;-1.0000000000000004;62.4
64862;BME280;62652;42.274;-71.436;2024-02-04T02:21:15;100970.0;;;-1.0000000000000004;61.7
64862;BME280;62652;42.274;-71.436;2024-02-04T02:22:04;100970.0;;;-1.0000000000000004;62.9
64862;BME280;62652;42.274;-71.436;2024-02-04T02:23:07;100960.0;;;-1.1111111111111112;63.4
64862;BME280;62652;42.274;-71.436;2024-02-04T02:24:07;100970.0;;;-1.1111111111111112;63.0
64862;BME280;62652;42.274;-71.436;2024-02-04T02:25:03;100970.0;;;-1.1111111111111112;62.6
64862;BME280;62652;42.274;-71.436;2024-02-04T02:26:02;100960.0;;;-1.0000000000000004;62.8
64862;BME280;62652;42.274;-71.436;2024-02-04T02:27:03;100960.0;;;-0.8888888888888897;62.7
64862;BME280;62652;42.274;-71.436;2024-02-04T02:28:00;100970.0;;;-1.0000000000000004;62.9
64862;BME280;62652;42.274;-71.436;2024-02-04T02:29:00;100970.0;;;-0.8888888888888897;62.4
64862;BME280;62652;42.274;-71.436;2024-02-04T02:30:01;100970.0;;;-1.0000000000000004;62.5
64862;BME280;62652;42.274;-71.436;2024-02-04T02:31:01;100970.0;;;-0.8888888888888897;62.6
64862;BME280;62652;42.274;-71.436;2024-02-04T02:32:01;100970.0;;;-1.0000000000000004;63.0
64862;BME280;62652;42.274;-71.436;2024-02-04T02:33:00;100970.0;;;-1.0000000000000004;63.5
64862;BME280;62652;42.274;-71.436;2024-02-04T02:34:01;100970.0;;;-0.777777777777777;63.5
64862;BME280;62652;42.274;-71.436;2024-02-04T02:35:00;100970.0;;;-1.0000000000000004;63.4
64862;BME280;62652;42.274;-71.436;2024-02-04T02:36:02;100970.0;;;-1.0000000000000004;64.0
64862;BME280;62652;42.274;-71.436;2024-02-04T02:37:08;100970.0;;;-1.1111111111111112;64.4
64862;BME280;62652;42.274;-71.436;2024-02-04T02:38:09;100970.0;;;-1.0000000000000004;63.7
64862;BME280;62652;42.274;-71.436;2024-02-04T02:39:06;100970.0;;;-0.8888888888888897;63.2
64862;BME280;62652;42.274;-71.436;2024-02-04T02:40:06;100970.0;;;-1.0000000000000004;62.9
64862;BME280;62652;42.274;-71.436;2024-02-04T02:41:04;100970.0;;;-1.1111111111111112;63.0
64862;BME280;62652;42.274;-71.436;2024-02-04T02:42:03;100960.0;;;-1.2222222222222219;62.8
64862;BME280;62652;42.274;-71.436;2024-02-04T02:43:02;100960.0;;;-1.2222222222222219;63.9
64862;BME280;62652;42.274;-71.436;2024-02-04T02:44:01;100960.0;;;-1.2777777777777781;64.6
64862;BME280;62652;42.274;-71.436;2024-02-04T02:45:01;100960.0;;;-1.2777777777777781;63.9
64862;BME280;62652;42.274;-71.436;2024-02-04T02:46:01;100960.0;;;-1.1111111111111112;64.4
64862;BME280;62652;42.274;-71.436;2024-02-04T02:47:02;100960.0;;;-1.2222222222222219;64.7
64862;BME280;62652;42.274;-71.436;2024-02-04T02:48:01;100960.0;;;-1.2222222222222219;63.8
64862;BME280;62652;42.274;-71.436;2024-02-04T02:49:02;100960.0;;;-1.1111111111111112;63.3
64862;BME280;62652;42.274;-71.436;2024-02-04T02:50:01;100960.0;;;-1.2222222222222219;63.3
64862;BME280;62652;42.274;-71.436;2024-02-04T02:51:00;100960.0;;;-1.2222222222222219;63.9
64862;BME280;62652;42.274;-71.436;2024-02-04T02:52:01;100970.0;;;-1.2777777777777781;64.1
64862;BME280;62652;42.274;-71.436;2024-02-04T02:53:00;100960.0;;;-1.2777777777777781;64.2
64862;BME280;62652;42.274;-71.436;2024-02-04T02:54:00;100960.0;;;-1.2777777777777781;64.3
64862;BME280;62652;42.274;-71.436;2024-02-04T02:55:01;100960.0;;;-1.2777777777777781;65.0
64862;BME280;62652;42.274;-71.436;2024-02-04T02:56:00;100960.0;;;-1.2222222222222219;64.0
64862;BME280;62652;42.274;-71.436;2024-02-04T02:57:01;100960.0;;;-1.1111111111111112;63.4
64862;BME280;62652;42.274;-71.436;2024-02-04T02:58:01;100960.0;;;-1.2777777777777781;63.8
64862;BME280;62652;42.274;-71.436;2024-02-04T02:59:01;100960.0;;;-1.3888888888888888;64.2
64862;BME280;62652;42.274;-71.436;2024-02-04T03:00:00;100960.0;;;-1.3888888888888888;63.7
64862;BME280;62652;42.274;-71.436;2024-02-04T03:01:00;100970.0;;;-1.2777777777777781;64.0
64862;BME280;62652;42.274;-71.436;2024-02-04T03:02:01;100960.0;;;-1.3888888888888888;64.5
64862;BME280;62652;42.274;-71.436;2024-02-04T03:03:00;100960.0;;;-1.3888888888888888;64.4
64862;BME280;62652;42.274;-71.436;2024-02-04T03:04:01;100960.0;;;-1.3888888888888888;64.0
64862;BME280;62652;42.274;-71.436;2024-02-04T03:05:00;100960.0;;;-1.3888888888888888;63.6
64862;BME280;62652;42.274;-71.436;2024-02-04T03:06:00;100960.0;;;-1.3888888888888888;64.4
64862;BME280;62652;42.274;-71.436;2024-02-04T03:07:00;100960.0;;;-1.4999999999999996;65.4
64862;BME280;62652;42.274;-71.436;2024-02-04T03:08:01;100960.0;;;-1.4999999999999996;64.8
64862;BME280;62652;42.274;-71.436;2024-02-04T03:09:00;100960.0;;;-1.3888888888888888;64.1
64862;BME280;62652;42.274;-71.436;2024-02-04T03:10:01;100960.0;;;-1.4999999999999996;63.9
64862;BME280;62652;42.274;-71.436;2024-02-04T03:11:01;100970.0;;;-1.2777777777777781;64.7
64862;BME280;62652;42.274;-71.436;2024-02-04T03:12:00;100970.0;;;-1.3888888888888888;63.9
64862;BME280;62652;42.274;-71.436;2024-02-04T03:13:01;100970.0;;;-1.3888888888888888;64.0
64862;BME280;62652;42.274;-71.436;2024-02-04T03:14:00;100970.0;;;-1.3888888888888888;63.6
64862;BME280;62652;42.274;-71.436;2024-02-04T03:15:01;100970.0;;;-1.4999999999999996;64.1
64862;BME280;62652;42.274;-71.436;2024-02-04T03:16:01;100970.0;;;-1.4999999999999996;63.8
64862;BME280;62652;42.274;-71.436;2024-02-04T03:17:00;100970.0;;;-1.3888888888888888;63.8
64862;BME280;62652;42.274;-71.436;2024-02-04T03:18:01;100960.0;;;-1.6111111111111103;64.7
64862;BME280;62652;42.274;-71.436;2024-02-04T03:19:00;100970.0;;;-1.4999999999999996;63.8
64862;BME280;62652;42.274;-71.436;2024-02-04T03:20:01;100970.0;;;-1.3888888888888888;64.1
64862;BME280;62652;42.274;-71.436;2024-02-04T03:21:00;100960.0;;;-1.3888888888888888;63.6
64862;BME280;62652;42.274;-71.436;2024-02-04T03:22:00;100960.0;;;-1.3888888888888888;63.5
64862;BME280;62652;42.274;-71.436;2024-02-04T03:23:00;100960.0;;;-1.4999999999999996;64.0
64862;BME280;62652;42.274;-71.436;2024-02-04T03:24:00;100960.0;;;-1.4999999999999996;64.3
64862;BME280;62652;42.274;-71.436;2024-02-04T03:25:01;100970.0;;;-1.3888888888888888;63.5
64862;BME280;62652;42.274;-71.436;2024-02-04T03:26:01;100960.0;;;-1.6111111111111103;63.3
64862;BME280;62652;42.274;-71.436;2024-02-04T03:27:00;100960.0;;;-1.6111111111111103;64.4
64862;BME280;62652;42.274;-71.436;2024-02-04T03:28:00;100960.0;;;-1.4999999999999996;63.8
64862;BME280;62652;42.274;-71.436;2024-02-04T03:29:00;100960.0;;;-1.6111111111111103;64.0
64862;BME280;62652;42.274;-71.436;2024-02-04T03:30:00;100970.0;;;-1.6111111111111103;64.5
64862;BME280;62652;42.274;-71.436;2024-02-04T03:31:00;100970.0;;;-1.6111111111111103;64.5
64862;BME280;62652;42.274;-71.436;2024-02-04T03:32:01;100970.0;;;-1.4999999999999996;64.4
64862;BME280;62652;42.274;-71.436;2024-02-04T03:33:01;100960.0;;;-1.722222222222223;64.8
64862;BME280;62652;42.274;-71.436;2024-02-04T03:34:01;100960.0;;;-1.7777777777777775;66.0
64862;BME280;62652;42.274;-71.436;2024-02-04T03:35:01;100960.0;;;-1.7777777777777775;65.7
64862;BME280;62652;42.274;-71.436;2024-02-04T03:36:00;100970.0;;;-1.7777777777777775;65.7
64862;BME280;62652;42.274;-71.436;2024-02-04T03:37:00;100960.0;;;-1.722222222222223;65.8
64862;BME280;62652;42.274;-71.436;2024-02-04T03:38:00;100970.0;;;-1.722222222222223;65.4
64862;BME280;62652;42.274;-71.436;2024-02-04T03:39:01;100960.0;;;-1.722222222222223;65.1
64862;BME280;62652;42.274;-71.436;2024-02-04T03:40:01;100960.0;;;-1.7777777777777775;64.8
64862;BME280;62652;42.274;-71.436;2024-02-04T03:41:00;100970.0;;;-1.7777777777777775;65.2
64862;BME280;62652;42.274;-71.436;2024-02-04T03:42:00;100970.0;;;-1.7777777777777775;65.1
64862;BME280;62652;42.274;-71.436;2024-02-04T03:43:00;100970.0;;;-1.7777777777777775;65.5
64862;BME280;62652;42.274;-71.436;2024-02-04T03:44:00;100970.0;;;-1.722222222222223;65.5
64862;BME280;62652;42.274;-71.436;2024-02-04T03:45:01;100970.0;;;-1.7777777777777775;65.5
64862;BME280;62652;42.274;-71.436;2024-02-04T03:46:01;100970.0;;;-1.6111111111111103;64.6
64862;BME280;62652;42.274;-71.436;2024-02-04T03:47:00;100960.0;;;-1.722222222222223;64.8
64862;BME280;62652;42.274;-71.436;2024-02-04T03:48:01;100970.0;;;-1.722222222222223;64.8
64862;BME280;62652;42.274;-71.436;2024-02-04T03:49:01;100970.0;;;-1.722222222222223;65.2
64862;BME280;62652;42.274;-71.436;2024-02-04T03:50:01;100970.0;;;-1.722222222222223;64.8
64862;BME280;62652;42.274;-71.436;2024-02-04T03:51:00;100960.0;;;-1.7777777777777775;65.2
64862;BME280;62652;42.274;-71.436;2024-02-04T03:52:00;100960.0;;;-1.7777777777777775;65.3
64862;BME280;62652;42.274;-71.436;2024-02-04T03:53:00;100970.0;;;-1.8888888888888882;65.7
64862;BME280;62652;42.274;-71.436;2024-02-04T03:54:00;100960.0;;;-1.7777777777777775;66.3
64862;BME280;62652;42.274;-71.436;2024-02-04T03:55:01;100970.0;;;-1.7777777777777775;65.0
64862;BME280;62652;42.274;-71.436;2024-02-04T03:56:00;100960.0;;;-1.7777777777777775;65.1
64862;BME280;62652;42.274;-71.436;2024-02-04T03:57:00;100960.0;;;-1.7777777777777775;65.4
64862;BME280;62652;42.274;-71.436;2024-02-04T03:58:00;100970.0;;;-1.722222222222223;64.0
64862;BME280;62652;42.274;-71.436;2024-02-04T03:59:01;100970.0;;;-1.722222222222223;64.7
64862;BME280;62652;42.274;-71.436;2024-02-04T04:00:00;100970.0;;;-1.8888888888888882;64.8
64862;BME280;62652;42.274;-71.436;2024-02-04T04:01:01;100960.0;;;-1.7777777777777775;64.9
64862;BME280;62652;42.274;-71.436;2024-02-04T04:02:00;100960.0;;;-1.7777777777777775;64.7
64862;BME280;62652;42.274;-71.436;2024-02-04T04:03:00;100960.0;;;-1.8888888888888882;65.1
64862;BME280;62652;42.274;-71.436;2024-02-04T04:04:00;100960.0;;;-1.722222222222223;64.9
64862;BME280;62652;42.274;-71.436;2024-02-04T04:05:00;100960.0;;;-1.8888888888888882;64.9
64862;BME280;62652;42.274;-71.436;2024-02-04T04:06:00;100960.0;;;-2.000000000000001;65.7
64862;BME280;62652;42.274;-71.436;2024-02-04T04:07:00;100950.0;;;-1.8888888888888882;66.0
64862;BME280;62652;42.274;-71.436;2024-02-04T04:08:01;100960.0;;;-1.722222222222223;65.0
64862;BME280;62652;42.274;-71.436;2024-02-04T04:09:01;100950.0;;;-1.8888888888888882;65.3
64862;BME280;62652;42.274;-71.436;2024-02-04T04:10:01;100950.0;;;-1.7777777777777775;65.3
64862;BME280;62652;42.274;-71.436;2024-02-04T04:11:01;100950.0;;;-1.7777777777777775;65.0
64862;BME280;62652;42.274;-71.436;2024-02-04T04:12:01;100950.0;;;-1.8888888888888882;65.4
64862;BME280;62652;42.274;-71.436;2024-02-04T04:13:01;100950.0;;;-2.000000000000001;66.2
64862;BME280;62652;42.274;-71.436;2024-02-04T04:14:01;100950.0;;;-2.000000000000001;66.3
64862;BME280;62652;42.274;-71.436;2024-02-04T04:15:00;100950.0;;;-2.000000000000001;66.3
64862;BME280;62652;42.274;-71.436;2024-02-04T04:16:01;100950.0;;;-1.8888888888888882;66.0
64862;BME280;62652;42.274;-71.436;2024-02-04T04:17:01;100950.0;;;-2.000000000000001;66.3
64862;BME280;62652;42.274;-71.436;2024-02-04T04:18:01;100950.0;;;-2.000000000000001;66.3
64862;BME280;62652;42.274;-71.436;2024-02-04T04:19:01;100950.0;;;-2.000000000000001;66.7
64862;BME280;62652;42.274;-71.436;2024-02-04T04:20:00;100950.0;;;-2.000000000000001;66.8
64862;BME280;62652;42.274;-71.436;2024-02-04T04:21:01;100950.0;;;-2.1111111111111116;67.1
64862;BME280;62652;42.274;-71.436;2024-02-04T04:22:01;100950.0;;;-2.1111111111111116;66.8
64862;BME280;62652;42.274;-71.436;2024-02-04T04:23:00;100950.0;;;-2.1111111111111116;66.9
64862;BME280;62652;42.274;-71.436;2024-02-04T04:24:00;100950.0;;;-2.1111111111111116;66.8
64862;BME280;62652;42.274;-71.436;2024-02-04T04:25:01;100950.0;;;-2.1111111111111116;66.5
64862;BME280;62652;42.274;-71.436;2024-02-04T04:26:01;100950.0;;;-2.000000000000001;66.6